Date,TemperatureHighF,TemperatureAvgF,TemperatureLowF,DewpointHighF,DewpointAvgF,DewpointLowF,HumidityHigh,HumidityAvg,HumidityLow,PressureMaxIn,PressureMinIn,WindSpeedMaxMPH,WindSpeedAvgMPH,GustSpeedMaxMPH,PrecipitationSumIn
2013-10-1,85.9,76.4,71.1,76.0,71.7,68.8,95,86,65,29.97,29.87,0,0,3,0.00
2013-10-2,88.9,76.5,69.7,74.8,71.2,68.6,98,85,53,30.00,29.88,0,0,3,0.00
2013-10-3,87.2,76.4,70.8,74.7,71.8,69.6,98,87,61,29.98,29.87,0,0,2,0.00
2013-10-4,84.7,77.6,72.5,76.2,73.3,71.0,96,87,73,29.97,29.88,0,0,1,0.00
2013-10-5,88.6,76.9,70.6,77.1,72.9,69.4,96,88,64,29.95,29.82,1,0,4,0.02
2013-10-6,74.9,66.5,58.0,73.7,57.4,48.1,96,75,43,29.97,29.85,2,1,6,0.00
2013-10-7,76.3,63.3,51.9,58.5,53.3,50.2,95,73,43,30.05,29.96,2,0,5,0.00
2013-10-8,77.7,62.8,51.7,58.0,54.1,49.8,94,76,41,30.08,29.98,1,0,5,0.00
2013-10-9,81.1,64.2,51.4,61.1,55.7,50.3,97,77,40,30.08,29.98,2,0,4,0.00
2013-10-10,81.4,66.7,57.1,68.0,61.0,55.6,98,84,52,30.09,29.94,2,0,4,0.00
2013-10-11,83.8,69.3,57.8,68.9,63.3,56.7,98,83,56,30.00,29.89,2,0,4,0.00
2013-10-12,86.2,70.5,66.2,74.4,68.0,64.6,97,92,68,30.05,29.91,2,0,5,0.00
2013-10-13,79.1,71.2,67.0,72.2,68.5,66.1,98,92,77,30.17,30.04,0,0,2,0.00
2013-10-14,79.3,71.1,63.9,71.2,67.2,62.7,97,88,70,30.12,29.97,0,0,0,0.00
2013-10-15,80.0,72.4,67.2,71.7,68.4,65.1,95,88,73,30.00,29.86,2,0,3,0.02
2013-10-16,67.2,64.0,60.2,65.8,62.7,59.1,97,96,93,29.96,29.88,2,0,4,0.12
2013-10-17,73.0,63.7,56.6,60.2,57.8,54.7,96,83,56,30.02,29.93,1,0,4,0.00
2013-10-18,71.3,60.5,52.8,60.1,55.8,51.7,97,86,59,30.03,29.90,0,0,2,0.00
2013-10-19,64.8,58.7,50.3,58.2,55.2,48.9,96,88,71,30.04,29.91,1,0,4,0.00
2013-10-20,70.4,55.4,43.6,52.2,47.2,42.5,98,78,41,30.08,29.94,0,0,3,0.00
2013-10-21,74.4,59.4,46.0,61.7,53.8,44.4,96,83,56,30.03,29.90,0,0,1,0.00
2013-10-22,72.3,60.3,54.1,59.7,55.0,50.4,95,84,50,30.03,29.94,1,0,6,0.00
2013-10-23,73.3,59.4,51.1,53.7,50.6,46.6,94,76,41,30.11,29.99,1,0,5,0.00
2013-10-24,78.0,61.2,48.4,58.8,52.4,46.5,94,75,48,30.25,30.03,1,0,5,0.00
2013-10-25,62.2,52.0,43.8,48.2,41.8,36.9,92,70,41,30.44,30.25,2,0,5,0.00
2013-10-26,73.3,55.7,43.3,58.5,47.6,40.5,93,76,46,30.30,30.08,2,0,4,0.00
2013-10-27,70.9,60.9,53.7,63.9,57.0,51.8,95,87,69,30.08,29.96,2,0,6,0.00
2013-10-28,78.6,64.1,55.9,66.3,60.4,54.7,98,89,58,30.13,30.01,1,0,2,0.00
2013-10-29,79.2,68.0,59.3,68.8,62.8,58.2,98,85,62,30.16,30.05,2,0,5,0.00
2013-10-30,71.5,68.3,63.7,68.9,65.8,61.8,97,92,85,30.12,29.92,1,0,5,0.18
2013-10-31,71.7,68.9,63.9,71.1,67.8,62.7,98,97,94,29.92,29.65,3,1,7,0.32